Форум Города N

Информация о пользователе

Привет, Гость! Войдите или зарегистрируйтесь.


Вы здесь » Форум Города N » Black Metal


Black Metal

Тем 461 страница 480 из 520

Тема Ответов Просмотров Последнее сообщение
461 666 [Black Metal]  MoonTemple
0 62 2008-05-09 16:32:21  MoonTemple
0 76 2008-05-09 16:09:14  MoonTemple
463 Numen [Black/Folk Metal]  MoonTemple
0 62 2008-05-09 02:39:01  MoonTemple
464 Spetälsk [True Black]  MoonTemple
0 67 2008-05-09 00:55:39  MoonTemple
0 68 2008-05-08 23:07:47  MoonTemple
466 Nåstrond [Black Metal]  MoonTemple
0 87 2008-05-08 22:41:24  MoonTemple
467 Mütiilation [Black Metal]  dying_inside
1 188 2008-05-08 20:48:30  dying_inside
0 80 2008-05-08 18:49:04  MoonTemple
469 Morok [Pagan Black Metal]  Gloomyrain
6 503 2008-05-08 13:25:58  кезиво
0 78 2008-05-08 00:43:01  MoonTemple
0 96 2008-05-04 08:13:53  MoonTemple
0 117 2008-05-02 22:30:43  MoonTemple
0 83 2008-05-02 00:55:42  MoonTemple
474 Blackwinds [Black Metal]  Gloomyrain
0 74 2008-04-29 20:55:47  Gloomyrain
475 Weltkrieg [Black Metal]  MoonTemple
1 144 2008-04-26 14:13:57  Gloomyrain
476 Bann [Depressive Black]  MoonTemple
3 130 2008-04-26 14:02:29  HA7tur
477 Sorgsvart [Folk Black]  MoonTemple
1 171 2008-04-25 20:15:34  Tony_colpachNIK
3 170 2008-04-24 22:18:17  HA7tur
1 119 2008-04-24 19:10:33  dying_inside
6 331 2008-04-24 12:48:28  Gloomyrain

Вы здесь » Форум Города N » Black Metal


Рейтинг форумов | Создать форум бесплатно © 2007–2019 «QuadroSystems» LLC